»·PEaware :: N71FS KOXR-KBUR

N71FS :: KOXR-KBUR

FLIGHT INFORMATION

Flight Status: Arrived
Operator: Privately registered:
United States
More flights under this callsign
Pilot: Jimmy C. (27329)
Aircraft: BEECH AIRCRAFT BONANZA
(BE36)
More flights by this aircraft type
Origin: KOXR Oxnard
United States
Destination: KBUR Bob Hope-Burbank
United States
More flights between these airports :: More routes between these airports
Route: +GINNA V326 CANOG
File this flight plan on PilotEdge
Remarks:
Altitude:
(Current/Filed)
8,000ft
Speed:
(Current/Filed)
150kts
Departed: 22-Dec-19 02:55 PM
Arrived: 22-Dec-19 03:14 PM
Distance/Time
Traveled:
42nm/0:18
Distance/Time
To Go:
Arrived

Flight Plot

Page will automatically refresh every two minutes.

Flight plan parsing failed; only flown route is shown


Map Options




Map Legend


Flown Route
Filed Route
Departure Airport
Arrival Airport
Navaid (VOR, NDB)
Fix

Horizontal Profiles

Position Reports

Time Latitude Longitude Heading Altitude Ground
Speed
22-Dec-19 14:24 34.198603 -119.206840 177 47ft 0kts
22-Dec-19 14:25 34.198600 -119.206840 177 47ft 0kts
22-Dec-19 14:26 34.198597 -119.206840 177 47ft 0kts
22-Dec-19 14:27 34.198594 -119.206840 177 47ft 0kts
22-Dec-19 14:28 34.198591 -119.206840 177 47ft 0kts
22-Dec-19 14:29 34.198588 -119.206839 177 47ft 0kts
22-Dec-19 14:30 34.198585 -119.206839 177 47ft 0kts
22-Dec-19 14:31 34.198583 -119.206839 177 47ft 0kts
22-Dec-19 14:32 34.198580 -119.206839 177 47ft 0kts
22-Dec-19 14:33 34.198577 -119.206839 177 47ft 0kts
22-Dec-19 14:34 34.198574 -119.206838 177 47ft 0kts
22-Dec-19 14:35 34.198571 -119.206838 177 47ft 0kts
22-Dec-19 14:36 34.198568 -119.206838 177 47ft 0kts
22-Dec-19 14:37 34.198565 -119.206838 177 47ft 0kts
22-Dec-19 14:38 34.198562 -119.206838 177 47ft 0kts
22-Dec-19 14:39 34.198559 -119.206838 177 47ft 0kts
22-Dec-19 14:40 34.198556 -119.206837 177 47ft 0kts
22-Dec-19 14:41 34.198553 -119.206837 177 47ft 0kts
22-Dec-19 14:42 34.198550 -119.206837 177 47ft 0kts
22-Dec-19 14:43 34.198507 -119.206834 176 47ft 0kts
22-Dec-19 14:44 34.198943 -119.206863 176 47ft 0kts
22-Dec-19 14:45 34.198940 -119.206863 176 47ft 0kts
22-Dec-19 14:46 34.198937 -119.206862 176 47ft 0kts
22-Dec-19 14:47 34.198934 -119.206862 176 47ft 0kts
22-Dec-19 14:48 34.198970 -119.207530 294 47ft 10kts
22-Dec-19 14:49 34.199662 -119.213482 267 47ft 25kts
22-Dec-19 14:50 34.200451 -119.216827 358 47ft 0kts
22-Dec-19 14:51 34.200453 -119.216827 358 47ft 0kts
22-Dec-19 14:52 34.200455 -119.216827 358 47ft 0kts
22-Dec-19 14:53 34.200457 -119.216827 358 47ft 0kts
22-Dec-19 14:54 34.199973 -119.204196 98 195ft 102kts
22-Dec-19 14:55 34.202886 -119.164412 85 1254ft 125kts
22-Dec-19 14:56 34.211361 -119.122042 83 2162ft 138kts
22-Dec-19 14:57 34.214145 -119.074830 89 2844ft 143kts
22-Dec-19 14:58 34.217160 -119.026956 89 3507ft 143kts
22-Dec-19 14:59 34.220553 -118.979066 88 4169ft 143kts
22-Dec-19 15:00 34.224089 -118.931034 88 4835ft 143kts
22-Dec-19 15:01 34.227804 -118.880366 88 5045ft 161kts
22-Dec-19 15:02 34.231755 -118.825536 88 5044ft 165kts
22-Dec-19 15:03 34.235894 -118.769956 88 5044ft 166kts
22-Dec-19 15:04 34.220187 -118.721639 120 5030ft 136kts
22-Dec-19 15:05 34.206073 -118.686530 109 5021ft 106kts
22-Dec-19 15:06 34.215874 -118.648205 90 5064ft 135kts
22-Dec-19 15:07 34.218884 -118.600760 90 5050ft 145kts
22-Dec-19 15:08 34.222041 -118.551731 89 5042ft 146kts
22-Dec-19 15:09 34.223297 -118.503348 101 4808ft 139kts
22-Dec-19 15:10 34.214715 -118.457954 113 3445ft 134kts
22-Dec-19 15:11 34.202925 -118.416455 110 2124ft 124kts
22-Dec-19 15:12 34.198417 -118.381183 101 1195ft 88kts
22-Dec-19 15:13 34.197804 -118.359952 96 782ft 0kts
22-Dec-19 15:14 34.198629 -118.357996 356 782ft 12kts
22-Dec-19 15:15 34.200151 -118.360171 340 782ft 0kts

Navigation Log

Ident Type
Flight plan parsing failed, navigation log unavailable